Time;durP1;ratioP1;P1;durP2;ratioP2;P2;SDS_P1;SDS_P2;PMS_P1;PMS_P2;Temp;Humidity;BMP_temperature;BMP_pressure;BME280_temperature;BME280_humidity;BME280_pressure;Samples;Min_cycle;Max_cycle;Signal;HPM_P1;HPM_P2
2022/09/15 00:00:48;;;;;;;4.40;3.17;;;16.80;99.90;;;;;;5080938;28;20024;-70
2022/09/15 00:03:14;;;;;;;6.85;3.50;;;16.80;99.90;;;;;;5079227;28;20031;-70
2022/09/15 00:05:40;;;;;;;3.55;3.08;;;16.80;99.90;;;;;;5080483;28;20028;-70
2022/09/15 00:08:05;;;;;;;3.28;3.08;;;16.80;99.90;;;;;;5076603;28;20039;-70
2022/09/15 00:10:31;;;;;;;7.45;3.15;;;16.80;99.90;;;;;;5077603;28;20025;-70
2022/09/15 00:12:57;;;;;;;6.63;3.78;;;16.80;99.90;;;;;;5078808;28;20072;-70
2022/09/15 00:15:22;;;;;;;3.75;3.45;;;16.80;99.90;;;;;;5078194;28;20114;-70
2022/09/15 00:17:50;;;;;;;3.35;3.08;;;16.80;99.90;;;;;;5076891;28;20396;-71
2022/09/15 00:20:19;;;;;;;4.15;3.67;;;16.80;99.90;;;;;;5076762;28;20052;-70
2022/09/15 00:22:45;;;;;;;7.32;3.97;;;16.80;99.90;;;;;;5075244;28;20028;-70
2022/09/15 00:25:12;;;;;;;4.28;3.88;;;16.80;99.90;;;;;;5077951;28;20035;-70
2022/09/15 00:27:38;;;;;;;7.38;3.40;;;16.80;99.90;;;;;;5078831;28;20059;-70
2022/09/15 00:30:06;;;;;;;4.70;4.22;;;16.80;99.90;;;;;;5079876;28;20573;-70
2022/09/15 00:32:32;;;;;;;5.53;5.03;;;16.80;99.90;;;;;;5078205;28;20032;-70
2022/09/15 00:34:57;;;;;;;5.47;5.07;;;16.80;99.90;;;;;;5080168;28;20032;-70
2022/09/15 00:37:24;;;;;;;6.75;6.15;;;16.80;99.90;;;;;;5080551;28;20028;-70
2022/09/15 00:39:49;;;;;;;8.13;6.88;;;16.80;99.90;;;;;;5082926;28;20077;-70
2022/09/15 00:42:21;;;;;;;8.15;6.97;;;16.90;99.90;;;;;;5079330;28;20025;-70
2022/09/15 00:44:48;;;;;;;12.05;7.65;;;16.90;99.90;;;;;;5079314;28;20357;-70
2022/09/15 00:47:15;;;;;;;13.98;7.97;;;16.90;99.90;;;;;;5081864;28;20111;-69
2022/09/15 00:49:43;;;;;;;8.13;7.35;;;16.90;99.90;;;;;;5083371;28;20025;-69
2022/09/15 00:52:26;;;;;;;7.38;6.78;;;16.90;99.90;;;;;;5081627;28;20075;-69
2022/09/15 00:55:01;;;;;;;7.95;7.35;;;16.90;99.90;;;;;;5083256;28;20094;-69
2022/09/15 00:57:49;;;;;;;7.18;6.53;;;16.90;99.90;;;;;;5084796;28;20048;-69
2022/09/15 01:00:18;;;;;;;7.53;6.93;;;16.80;99.90;;;;;;5070991;28;20016;-69
2022/09/15 01:02:47;;;;;;;9.70;6.80;;;16.80;99.90;;;;;;5082532;28;20029;-69
2022/09/15 01:05:16;;;;;;;7.45;6.85;;;16.80;99.90;;;;;;5078558;28;20033;-68
2022/09/15 01:07:52;;;;;;;7.88;7.28;;;16.80;99.90;;;;;;5080627;28;20044;-69
2022/09/15 01:10:27;;;;;;;10.77;7.55;;;16.80;99.90;;;;;;5085435;28;20127;-69
2022/09/15 01:13:02;;;;;;;8.35;7.65;;;16.80;99.90;;;;;;5081840;28;20020;-68
2022/09/15 01:15:46;;;;;;;9.07;7.28;;;16.80;99.90;;;;;;5080432;28;20474;-69
2022/09/15 01:18:54;;;;;;;9.07;8.07;;;16.80;99.90;;;;;;5082537;28;20317;-69
2022/09/15 01:21:30;;;;;;;11.60;8.07;;;16.80;99.90;;;;;;4987423;28;20495;-69
2022/09/15 01:24:01;;;;;;;14.02;7.78;;;16.80;99.90;;;;;;4985259;28;20064;-69
2022/09/15 01:27:15;;;;;;;10.10;7.88;;;16.80;99.90;;;;;;5037866;28;20509;-69
2022/09/15 01:29:53;;;;;;;8.95;8.15;;;16.70;99.90;;;;;;5049398;28;20032;-69
2022/09/15 01:35:12;;;;;;;8.82;7.95;;;16.70;99.90;;;;;;5082092;28;20083;-70
2022/09/15 01:37:45;;;;;;;8.40;7.70;;;16.70;99.90;;;;;;5082140;28;20048;-70
2022/09/15 01:40:14;;;;;;;13.25;9.35;;;16.70;99.90;;;;;;5084808;28;20025;-69
2022/09/15 01:42:42;;;;;;;9.00;8.30;;;16.70;99.90;;;;;;5079939;28;20074;-69
2022/09/15 01:45:18;;;;;;;22.17;9.57;;;16.70;99.90;;;;;;5067045;28;20424;-69
2022/09/15 01:47:46;;;;;;;8.55;7.85;;;16.70;99.90;;;;;;5077420;28;20056;-69
2022/09/15 01:50:19;;;;;;;13.95;8.65;;;16.70;99.90;;;;;;5081783;28;20476;-70
2022/09/15 01:52:48;;;;;;;9.52;8.73;;;16.70;99.90;;;;;;5086205;28;20024;-69
2022/09/15 01:55:21;;;;;;;9.52;8.73;;;16.70;99.90;;;;;;5083635;28;20016;-69
2022/09/15 01:57:47;;;;;;;8.75;7.80;;;16.70;99.90;;;;;;5085004;28;20062;-69
2022/09/15 02:00:13;;;;;;;11.20;8.77;;;16.60;99.90;;;;;;5081682;28;20055;-69
2022/09/15 02:03:03;;;;;;;10.25;8.15;;;16.60;99.90;;;;;;5083600;28;20028;-69
2022/09/15 02:05:42;;;;;;;9.50;8.70;;;16.60;99.90;;;;;;5082791;28;20028;-70
2022/09/15 02:08:18;;;;;;;12.13;9.60;;;16.60;99.90;;;;;;5082468;28;20509;-69
2022/09/15 02:11:31;;;;;;;8.98;8.18;;;16.60;99.90;;;;;;5083631;28;20494;-69
2022/09/15 02:14:02;;;;;;;10.45;9.45;;;16.60;99.90;;;;;;5020572;28;20156;-69
2022/09/15 02:16:34;;;;;;;11.32;10.23;;;16.60;99.90;;;;;;5016204;28;20026;-68
2022/09/15 02:19:02;;;;;;;10.05;8.23;;;16.60;99.90;;;;;;5052278;28;20036;-68
2022/09/15 02:21:45;;;;;;;10.98;8.05;;;16.60;99.90;;;;;;5080408;28;20017;-68
2022/09/15 02:24:17;;;;;;;24.52;9.18;;;16.60;99.90;;;;;;5080399;28;20029;-70
2022/09/15 02:26:45;;;;;;;9.85;8.75;;;16.60;99.90;;;;;;5064174;28;20024;-69
2022/09/15 02:29:17;;;;;;;9.98;7.75;;;16.60;99.90;;;;;;5081658;28;20094;-68
2022/09/15 02:31:44;;;;;;;8.65;7.78;;;16.60;99.90;;;;;;5082539;28;20024;-68
2022/09/15 02:34:37;;;;;;;7.65;6.55;;;16.60;99.90;;;;;;5082456;28;20059;-69
2022/09/15 02:37:03;;;;;;;9.32;7.78;;;16.60;99.90;;;;;;5076224;28;20497;-69
2022/09/15 02:39:36;;;;;;;7.35;6.85;;;16.60;99.90;;;;;;5077933;28;20052;-68
2022/09/15 02:42:02;;;;;;;18.00;9.00;;;16.60;99.90;;;;;;5084042;28;20480;-69
2022/09/15 02:44:29;;;;;;;11.40;7.05;;;16.60;99.90;;;;;;5079637;28;20430;-69
2022/09/15 02:46:57;;;;;;;7.97;7.28;;;16.60;99.90;;;;;;5081884;28;20537;-68
2022/09/15 02:49:22;;;;;;;8.63;6.53;;;16.60;99.90;;;;;;5082242;28;20028;-69
2022/09/15 02:51:48;;;;;;;14.38;7.78;;;16.60;99.90;;;;;;5079209;28;20498;-69
2022/09/15 02:54:14;;;;;;;7.38;6.68;;;16.60;99.90;;;;;;5077781;28;20387;-69
2022/09/15 02:56:39;;;;;;;6.90;6.28;;;16.60;99.90;;;;;;5076068;28;20040;-68
2022/09/15 02:59:05;;;;;;;6.93;6.38;;;16.60;99.90;;;;;;5062735;28;20395;-69
2022/09/15 03:01:33;;;;;;;7.57;6.88;;;16.60;99.90;;;;;;5081584;28;20115;-69
2022/09/15 03:04:00;;;;;;;4.80;4.40;;;16.60;99.90;;;;;;5080592;28;20020;-69
2022/09/15 03:06:33;;;;;;;4.30;4.00;;;16.60;99.90;;;;;;5082096;28;20043;-69
2022/09/15 03:09:00;;;;;;;5.57;5.00;;;16.60;99.90;;;;;;5076814;28;20047;-69
2022/09/15 03:11:27;;;;;;;6.97;6.30;;;16.60;99.90;;;;;;5078139;28;20042;-68
2022/09/15 03:13:55;;;;;;;36.80;6.35;;;16.60;99.90;;;;;;5074429;28;20032;-68
2022/09/15 03:16:21;;;;;;;22.13;5.93;;;16.60;99.90;;;;;;5082059;28;20021;-69
2022/09/15 03:18:47;;;;;;;8.05;5.25;;;16.60;99.90;;;;;;5081582;28;20046;-69
2022/09/15 03:21:14;;;;;;;11.40;4.78;;;16.60;99.90;;;;;;5078633;28;20025;-68
2022/09/15 03:23:41;;;;;;;6.18;4.88;;;16.60;99.90;;;;;;5077158;28;20048;-68
2022/09/15 03:26:08;;;;;;;7.65;4.45;;;16.60;99.90;;;;;;5078922;28;20518;-68
2022/09/15 03:28:35;;;;;;;5.78;3.75;;;16.50;99.90;;;;;;5075609;28;20132;-68
2022/09/15 03:31:01;;;;;;;10.02;3.72;;;16.50;99.90;;;;;;5078444;28;20070;-69
2022/09/15 03:33:26;;;;;;;4.43;3.50;;;16.50;99.90;;;;;;5081708;28;20032;-69
2022/09/15 03:35:52;;;;;;;7.00;3.47;;;16.50;99.90;;;;;;5080500;28;20060;-68
2022/09/15 03:38:18;;;;;;;13.48;4.45;;;16.50;99.90;;;;;;5081186;28;20024;-68
2022/09/15 03:40:57;;;;;;;6.15;4.65;;;16.40;99.90;;;;;;5077887;28;20545;-68
2022/09/15 03:43:22;;;;;;;7.20;4.57;;;16.40;99.90;;;;;;5078796;28;20036;-69
2022/09/15 03:45:48;;;;;;;7.93;3.63;;;16.40;99.90;;;;;;5080870;28;20065;-68
2022/09/15 03:48:14;;;;;;;7.63;3.10;;;16.40;99.90;;;;;;5076135;28;20043;-68
2022/09/15 03:50:39;;;;;;;9.05;3.30;;;16.40;99.90;;;;;;5079509;28;20020;-69
2022/09/15 03:53:05;;;;;;;9.20;3.53;;;16.30;99.90;;;;;;5078093;28;20507;-70
2022/09/15 03:55:31;;;;;;;12.90;3.30;;;16.30;99.90;;;;;;5080082;28;20686;-69
2022/09/15 03:57:56;;;;;;;19.83;5.38;;;16.30;99.90;;;;;;5066346;28;20027;-72
2022/09/15 04:00:22;;;;;;;10.10;3.67;;;16.20;99.90;;;;;;5077889;28;20020;-69
2022/09/15 04:02:48;;;;;;;9.57;2.58;;;16.20;99.90;;;;;;5081553;28;20431;-69
2022/09/15 04:05:13;;;;;;;6.05;1.45;;;16.20;99.90;;;;;;5078166;28;20044;-70
2022/09/15 04:07:40;;;;;;;4.05;1.48;;;16.20;99.90;;;;;;5078403;28;20036;-70
2022/09/15 04:10:07;;;;;;;1.95;1.10;;;16.10;99.90;;;;;;5081666;28;20025;-70
2022/09/15 04:12:34;;;;;;;1.40;1.17;;;16.10;99.90;;;;;;5078164;28;20032;-70
2022/09/15 04:14:59;;;;;;;3.55;1.20;;;16.10;99.90;;;;;;5083072;28;20032;-72
2022/09/15 04:17:26;;;;;;;4.45;1.50;;;16.00;99.90;;;;;;5081647;28;20392;-70
2022/09/15 04:19:52;;;;;;;5.70;1.98;;;16.00;99.90;;;;;;5078580;28;20031;-71
2022/09/15 04:22:18;;;;;;;3.78;1.88;;;16.00;99.90;;;;;;5081216;28;20024;-71
2022/09/15 04:24:43;;;;;;;3.05;1.67;;;15.90;99.90;;;;;;5085687;28;20584;-71
2022/09/15 04:27:09;;;;;;;2.80;1.95;;;15.90;99.90;;;;;;5085537;28;20032;-72
2022/09/15 04:29:35;;;;;;;3.95;2.22;;;15.90;99.90;;;;;;5071721;28;20036;-71
2022/09/15 04:32:00;;;;;;;4.65;2.45;;;15.90;99.90;;;;;;5062398;28;20062;-71
2022/09/15 04:34:26;;;;;;;4.07;2.70;;;15.90;99.90;;;;;;5080248;28;20430;-72
2022/09/15 04:36:52;;;;;;;3.72;2.10;;;15.80;99.90;;;;;;5084502;28;20903;-73
2022/09/15 04:39:18;;;;;;;3.10;1.70;;;15.80;99.90;;;;;;5082130;28;20020;-71
2022/09/15 04:41:44;;;;;;;4.20;1.58;;;15.80;99.90;;;;;;5077033;28;20108;-72
2022/09/15 04:44:09;;;;;;;2.92;1.60;;;15.80;99.90;;;;;;5078759;28;20171;-72
2022/09/15 04:46:35;;;;;;;3.03;1.58;;;15.80;99.90;;;;;;5081177;28;20031;-71
2022/09/15 04:49:01;;;;;;;3.15;1.88;;;15.80;99.90;;;;;;5077987;28;20023;-71
2022/09/15 04:51:26;;;;;;;1.75;1.50;;;15.80;99.90;;;;;;5082027;28;20038;-72
2022/09/15 04:53:52;;;;;;;1.73;1.45;;;15.70;99.90;;;;;;5077162;28;20074;-73
2022/09/15 04:56:23;;;;;;;3.00;1.40;;;15.70;99.90;;;;;;5080669;28;20074;-72
2022/09/15 04:58:54;;;;;;;1.92;1.60;;;15.70;99.90;;;;;;5079625;28;20024;-72
2022/09/15 05:01:27;;;;;;;2.88;1.42;;;15.70;99.90;;;;;;5084409;28;20024;-72
2022/09/15 05:03:53;;;;;;;1.60;1.35;;;15.80;99.90;;;;;;5083960;28;20101;-71
2022/09/15 05:06:26;;;;;;;2.60;1.58;;;15.80;99.90;;;;;;5076659;28;20032;-72
2022/09/15 05:08:53;;;;;;;3.97;2.00;;;15.80;99.90;;;;;;5082716;28;20383;-72
2022/09/15 05:11:20;;;;;;;3.05;2.17;;;15.80;99.90;;;;;;5079671;28;20228;-72
2022/09/15 05:13:47;;;;;;;4.60;2.05;;;15.80;99.90;;;;;;5083903;28;20024;-71
2022/09/15 05:16:19;;;;;;;2.67;2.10;;;15.80;99.90;;;;;;5080148;28;20056;-71
2022/09/15 05:18:46;;;;;;;2.17;1.77;;;15.80;99.90;;;;;;5080888;28;20028;-71
2022/09/15 05:21:15;;;;;;;2.28;1.67;;;15.90;99.90;;;;;;5085000;28;20035;-72
2022/09/15 05:23:41;;;;;;;2.15;1.92;;;15.90;99.90;;;;;;5080840;28;20021;-71
2022/09/15 05:26:10;;;;;;;2.63;2.10;;;15.90;99.90;;;;;;5079382;28;20029;-70
2022/09/15 05:28:37;;;;;;;2.10;1.90;;;15.90;99.90;;;;;;5081406;28;20031;-69
2022/09/15 05:31:09;;;;;;;2.58;1.90;;;16.00;99.90;;;;;;5082417;28;20078;-69
2022/09/15 05:33:35;;;;;;;2.63;1.65;;;16.00;99.90;;;;;;5082784;28;20111;-70
2022/09/15 05:36:01;;;;;;;5.63;2.13;;;16.00;99.90;;;;;;5082574;28;20217;-69
2022/09/15 05:38:30;;;;;;;2.88;2.08;;;16.00;99.90;;;;;;5079921;28;20078;-70
2022/09/15 05:41:16;;;;;;;3.35;2.28;;;16.00;99.90;;;;;;5080558;28;20085;-69
2022/09/15 05:43:43;;;;;;;2.47;1.98;;;16.00;99.90;;;;;;5081273;28;20028;-69
2022/09/15 05:46:09;;;;;;;3.25;2.63;;;16.10;99.90;;;;;;5082168;28;20051;-70
2022/09/15 05:48:35;;;;;;;3.40;3.10;;;16.00;99.90;;;;;;5081693;28;20020;-70
2022/09/15 05:51:01;;;;;;;3.33;3.00;;;16.10;99.90;;;;;;5080668;28;20500;-69
2022/09/15 05:53:27;;;;;;;2.53;2.33;;;16.10;99.90;;;;;;5078965;28;20028;-69
2022/09/15 05:55:58;;;;;;;4.97;3.25;;;16.10;99.90;;;;;;5078365;28;20051;-69
2022/09/15 05:58:24;;;;;;;4.97;3.27;;;16.00;99.90;;;;;;5084065;28;20078;-70
2022/09/15 06:00:52;;;;;;;8.20;4.28;;;16.00;99.90;;;;;;5084190;28;20502;-69
2022/09/15 06:03:17;;;;;;;6.88;5.90;;;16.00;99.90;;;;;;5079712;28;20039;-71
2022/09/15 06:05:43;;;;;;;3.72;3.17;;;16.00;99.90;;;;;;5079383;28;20415;-69
2022/09/15 06:08:09;;;;;;;5.93;3.35;;;15.90;99.90;;;;;;5080222;28;20111;-69
2022/09/15 06:10:35;;;;;;;5.80;4.20;;;15.90;99.90;;;;;;5079640;28;20476;-69
2022/09/15 06:13:00;;;;;;;8.32;3.53;;;15.90;99.90;;;;;;5084632;28;20028;-69
2022/09/15 06:15:26;;;;;;;2.67;2.45;;;15.90;99.90;;;;;;5082037;28;20143;-71
2022/09/15 06:17:52;;;;;;;2.65;2.45;;;15.80;99.90;;;;;;5079454;28;20036;-70
2022/09/15 06:20:18;;;;;;;4.45;4.05;;;15.80;99.90;;;;;;5081190;28;20032;-68
2022/09/15 06:22:44;;;;;;;4.88;4.45;;;15.90;99.90;;;;;;5080068;28;20036;-69
2022/09/15 06:25:11;;;;;;;4.45;4.03;;;15.80;99.90;;;;;;5082776;28;20052;-70
2022/09/15 06:27:38;;;;;;;7.43;5.00;;;15.90;99.90;;;;;;5075974;28;20093;-70
2022/09/15 06:30:04;;;;;;;5.70;5.20;;;15.90;99.90;;;;;;5082135;28;20131;-69
2022/09/15 06:32:30;;;;;;;6.25;4.80;;;15.90;99.90;;;;;;5082239;28;20078;-70
2022/09/15 06:34:56;;;;;;;4.60;3.92;;;15.90;99.90;;;;;;5080621;28;20044;-69
2022/09/15 06:37:21;;;;;;;8.30;4.03;;;15.90;99.90;;;;;;5078812;28;20032;-69
2022/09/15 06:39:47;;;;;;;4.13;3.53;;;16.00;99.90;;;;;;5080518;28;20031;-68
2022/09/15 06:42:12;;;;;;;3.45;3.15;;;16.00;99.90;;;;;;5075473;28;20033;-70
2022/09/15 06:44:38;;;;;;;3.95;2.45;;;16.00;99.90;;;;;;5080506;28;20057;-70
2022/09/15 06:47:04;;;;;;;2.40;1.70;;;16.00;99.90;;;;;;5079847;28;20036;-69
2022/09/15 06:49:30;;;;;;;3.33;1.90;;;16.00;99.90;;;;;;5079426;28;20043;-69
2022/09/15 06:51:56;;;;;;;2.58;1.48;;;16.00;99.90;;;;;;5081184;28;20024;-70
2022/09/15 06:54:22;;;;;;;1.95;1.33;;;15.90;99.90;;;;;;5068115;28;20047;-69
2022/09/15 06:56:48;;;;;;;1.90;1.00;;;15.90;99.90;;;;;;5077122;28;20036;-69
2022/09/15 06:59:15;;;;;;;1.45;1.10;;;15.90;99.90;;;;;;5078811;28;20020;-69
2022/09/15 07:01:41;;;;;;;1.77;1.05;;;15.90;99.90;;;;;;5079027;28;20051;-69
2022/09/15 07:04:08;;;;;;;2.50;1.70;;;15.80;99.90;;;;;;5087242;28;20499;-69
2022/09/15 07:06:35;;;;;;;6.32;1.80;;;15.80;99.90;;;;;;5083318;28;20499;-69
2022/09/15 07:09:01;;;;;;;2.78;2.13;;;15.80;99.90;;;;;;5081290;28;20036;-70
2022/09/15 07:11:27;;;;;;;2.35;1.20;;;15.80;99.90;;;;;;5078711;28;20040;-68
2022/09/15 07:13:53;;;;;;;1.05;0.95;;;15.80;99.90;;;;;;5074312;28;20037;-69
2022/09/15 07:16:20;;;;;;;0.80;0.75;;;15.70;99.90;;;;;;5082625;28;20147;-69
2022/09/15 07:18:46;;;;;;;1.80;0.70;;;15.70;99.90;;;;;;5083165;28;20032;-70
2022/09/15 07:21:15;;;;;;;0.80;0.70;;;15.70;99.90;;;;;;5079188;28;20035;-69
2022/09/15 07:23:41;;;;;;;1.48;0.60;;;15.60;99.90;;;;;;5080421;28;20031;-69
2022/09/15 07:26:20;;;;;;;1.25;0.80;;;15.50;99.90;;;;;;5078829;28;20361;-69
2022/09/15 07:28:55;;;;;;;0.52;0.52;;;15.50;99.90;;;;;;5078740;28;20080;-70
2022/09/15 07:31:23;;;;;;;2.58;1.02;;;15.40;99.90;;;;;;5079029;28;20020;-69
2022/09/15 07:33:49;;;;;;;4.05;2.83;;;15.40;99.90;;;;;;5082519;28;20016;-70
2022/09/15 07:36:15;;;;;;;4.57;4.18;;;15.30;99.90;;;;;;5076911;28;20368;-69
2022/09/15 07:38:43;;;;;;;5.03;4.40;;;15.20;99.90;;;;;;5080961;28;20067;-69
2022/09/15 07:41:12;;;;;;;5.78;5.20;;;15.00;99.90;;;;;;5080185;28;20096;-69
2022/09/15 07:43:38;;;;;;;7.85;6.45;;;14.90;99.90;;;;;;5080439;28;20057;-70
2022/09/15 07:46:05;;;;;;;8.75;7.82;;;14.70;99.90;;;;;;5078955;28;20024;-70
2022/09/15 07:48:31;;;;;;;12.05;10.18;;;14.70;99.90;;;;;;5079898;28;20034;-69
2022/09/15 07:50:58;;;;;;;18.08;12.98;;;14.70;99.90;;;;;;5081240;28;20067;-69
2022/09/15 07:53:27;;;;;;;21.92;16.00;;;14.80;99.90;;;;;;5082302;28;20036;-70
2022/09/15 07:55:53;;;;;;;23.42;17.15;;;14.80;99.90;;;;;;5076839;28;20036;-70
2022/09/15 07:58:19;;;;;;;13.93;12.73;;;14.80;99.90;;;;;;5078083;28;20053;-69
2022/09/15 08:00:46;;;;;;;14.77;13.25;;;14.80;99.90;;;;;;5079219;28;20021;-70
2022/09/15 08:03:12;;;;;;;14.45;12.63;;;14.80;99.90;;;;;;5079585;28;20025;-70
2022/09/15 08:05:38;;;;;;;12.50;9.57;;;14.80;99.90;;;;;;5080503;28;20127;-70
2022/09/15 08:08:04;;;;;;;10.55;9.52;;;14.70;99.90;;;;;;5079626;28;20454;-69
2022/09/15 08:10:31;;;;;;;9.23;7.75;;;14.70;99.90;;;;;;5072972;28;20045;-69
2022/09/15 08:12:58;;;;;;;13.75;7.43;;;14.70;99.90;;;;;;5081159;28;20110;-72
2022/09/15 08:15:24;;;;;;;8.23;7.18;;;14.60;99.90;;;;;;5079596;28;20556;-69
2022/09/15 08:17:50;;;;;;;8.32;7.15;;;14.50;99.90;;;;;;5073329;28;20064;-69
2022/09/15 08:20:16;;;;;;;9.88;7.93;;;14.50;99.90;;;;;;5071246;28;20055;-69
2022/09/15 08:22:44;;;;;;;11.40;10.23;;;14.50;99.90;;;;;;5079008;28;20024;-69
2022/09/15 08:25:10;;;;;;;10.80;9.63;;;14.50;99.90;;;;;;5081883;28;20046;-70
2022/09/15 08:27:36;;;;;;;10.30;8.95;;;14.50;99.90;;;;;;5075973;28;20029;-70
2022/09/15 08:30:02;;;;;;;13.52;9.32;;;14.60;99.90;;;;;;5079980;28;20090;-69
2022/09/15 08:32:28;;;;;;;12.57;10.50;;;14.60;99.90;;;;;;5077345;28;20028;-69
2022/09/15 08:34:54;;;;;;;15.52;8.50;;;14.70;99.90;;;;;;5078624;28;20038;-69
2022/09/15 08:37:19;;;;;;;8.55;7.07;;;14.90;99.90;;;;;;5059283;28;20108;-69
2022/09/15 08:39:45;;;;;;;10.35;5.30;;;15.10;99.90;;;;;;5078876;28;20350;-70
2022/09/15 08:42:17;;;;;;;7.18;5.68;;;15.10;99.90;;;;;;5081196;28;20028;-69
2022/09/15 08:44:56;;;;;;;13.27;5.65;;;15.20;99.90;;;;;;5081499;28;20124;-69
2022/09/15 08:47:35;;;;;;;13.60;5.22;;;15.40;99.90;;;;;;5082539;28;20163;-69
2022/09/15 08:50:29;;;;;;;6.82;5.03;;;15.40;99.90;;;;;;5080218;28;20033;-69
2022/09/15 08:53:02;;;;;;;9.05;5.60;;;15.60;99.90;;;;;;5080137;28;20633;-69
2022/09/15 08:55:36;;;;;;;18.13;6.40;;;15.70;99.90;;;;;;5062449;28;20044;-71
2022/09/15 08:58:03;;;;;;;7.22;5.90;;;15.90;99.90;;;;;;5078008;28;20057;-70
2022/09/15 09:00:30;;;;;;;6.15;5.18;;;15.90;99.90;;;;;;5061833;28;20107;-69
2022/09/15 09:03:10;;;;;;;8.77;6.10;;;16.00;99.90;;;;;;5078911;28;20037;-69
2022/09/15 09:05:43;;;;;;;6.78;5.30;;;16.10;99.90;;;;;;5082601;28;20112;-69
2022/09/15 09:08:42;;;;;;;5.10;4.43;;;16.20;99.90;;;;;;5079980;28;20453;-70
2022/09/15 09:11:26;;;;;;;5.13;4.47;;;16.20;99.90;;;;;;5085164;28;20028;-71
2022/09/15 09:14:04;;;;;;;9.05;4.68;;;16.30;99.90;;;;;;5084620;28;20394;-70
2022/09/15 09:16:32;;;;;;;8.05;4.43;;;16.50;99.90;;;;;;5081828;28;20117;-69
2022/09/15 09:19:30;;;;;;;5.45;4.05;;;16.50;99.90;;;;;;5080034;28;20028;-70
2022/09/15 09:22:02;;;;;;;6.43;4.38;;;16.60;99.90;;;;;;5083728;28;20028;-69
2022/09/15 09:24:41;;;;;;;7.38;4.35;;;16.80;99.90;;;;;;5054624;28;20037;-69
2022/09/15 09:27:17;;;;;;;6.57;3.67;;;17.30;99.90;;;;;;5068730;28;20032;-69
2022/09/15 09:29:50;;;;;;;5.68;3.45;;;17.90;99.90;;;;;;5084871;28;20028;-71
2022/09/15 09:32:26;;;;;;;8.02;3.35;;;18.60;99.90;;;;;;5058619;28;20031;-71
2022/09/15 09:35:16;;;;;;;8.27;3.47;;;19.20;99.90;;;;;;5082056;28;20032;-72
2022/09/15 09:37:42;;;;;;;8.45;3.08;;;20.00;99.90;;;;;;5083969;28;20039;-69
2022/09/15 09:40:14;;;;;;;4.55;2.35;;;20.90;99.90;;;;;;5077636;28;20016;-66
2022/09/15 09:42:42;;;;;;;7.07;2.88;;;21.70;99.90;;;;;;5082248;28;20033;-67
2022/09/15 09:45:12;;;;;;;3.83;2.30;;;22.10;99.90;;;;;;5080766;28;20115;-68
2022/09/15 09:47:39;;;;;;;5.15;2.28;;;22.40;99.90;;;;;;5079115;28;20387;-67
2022/09/15 09:50:31;;;;;;;10.73;2.55;;;22.30;99.90;;;;;;5080453;28;20621;-67
2022/09/15 09:52:57;;;;;;;5.18;2.50;;;22.10;99.90;;;;;;5078605;28;20669;-68
2022/09/15 09:55:28;;;;;;;5.00;2.42;;;21.80;99.90;;;;;;5079685;28;20033;-68
2022/09/15 09:58:16;;;;;;;5.20;2.85;;;21.70;99.90;;;;;;5082290;28;20028;-67
2022/09/15 10:00:42;;;;;;;5.55;2.97;;;21.30;99.90;;;;;;5083249;28;20487;-67
2022/09/15 10:03:24;;;;;;;7.35;3.20;;;20.80;99.90;;;;;;5080972;28;20086;-67
2022/09/15 10:06:23;;;;;;;3.35;2.60;;;20.70;99.90;;;;;;5080695;28;20086;-68
2022/09/15 10:09:02;;;;;;;4.60;2.65;;;21.00;99.90;;;;;;5084407;28;20036;-67
2022/09/15 10:11:40;;;;;;;5.10;2.63;;;21.30;99.90;;;;;;5080868;28;20491;-68
2022/09/15 10:14:15;;;;;;;5.18;3.00;;;21.70;99.90;;;;;;5058428;28;20055;-68
2022/09/15 10:16:41;;;;;;;4.70;2.35;;;22.20;99.90;;;;;;5078136;28;20507;-67
2022/09/15 10:19:12;;;;;;;6.13;2.47;;;23.00;99.90;;;;;;5074558;28;20054;-67
2022/09/15 10:21:38;;;;;;;7.97;2.33;;;23.40;99.90;;;;;;5082911;28;20016;-67
2022/09/15 10:24:23;;;;;;;7.03;2.85;;;23.70;99.90;;;;;;5080617;28;20032;-67
2022/09/15 10:26:49;;;;;;;4.50;2.55;;;23.50;99.90;;;;;;5083090;28;20028;-66
2022/09/15 10:29:17;;;;;;;4.28;2.08;;;23.10;99.90;;;;;;5085359;28;20028;-66
2022/09/15 10:31:44;;;;;;;3.80;2.95;;;22.80;99.90;;;;;;5079097;28;20031;-67
2022/09/15 10:34:27;;;;;;;6.10;2.63;;;22.60;99.90;;;;;;5085862;28;20158;-67
2022/09/15 10:37:00;;;;;;;3.85;2.60;;;22.40;99.90;;;;;;5081125;28;20390;-67
2022/09/15 10:39:47;;;;;;;3.17;2.15;;;22.40;99.90;;;;;;5078581;28;20060;-66
2022/09/15 10:42:34;;;;;;;2.75;2.10;;;22.60;99.90;;;;;;5078202;28;20031;-66
2022/09/15 10:45:12;;;;;;;6.30;2.90;;;22.70;99.90;;;;;;5082305;28;20090;-67
2022/09/15 10:47:49;;;;;;;5.63;2.40;;;22.60;99.90;;;;;;5081478;28;20050;-66
2022/09/15 10:50:37;;;;;;;9.23;2.75;;;22.10;99.90;;;;;;5082052;28;20051;-67
2022/09/15 10:53:24;;;;;;;4.50;2.20;;;21.80;99.90;;;;;;5076369;28;20395;-66
2022/09/15 10:55:56;;;;;;;5.22;2.65;;;21.70;99.90;;;;;;5065873;28;20039;-66
2022/09/15 10:58:36;;;;;;;3.15;2.28;;;21.60;99.90;;;;;;5083050;28;20036;-66
2022/09/15 11:01:16;;;;;;;8.30;3.25;;;21.40;99.90;;;;;;5081182;28;20395;-67
2022/09/15 11:04:07;;;;;;;5.60;2.90;;;21.10;99.90;;;;;;5076897;28;20074;-66
2022/09/15 11:06:33;;;;;;;4.18;2.80;;;20.90;99.90;;;;;;5081212;28;20065;-67
2022/09/15 11:09:17;;;;;;;3.92;2.83;;;20.70;99.90;;;;;;5082598;28;20040;-67
2022/09/15 11:11:57;;;;;;;5.78;3.72;;;20.50;99.90;;;;;;5079342;28;20437;-67
2022/09/15 11:14:23;;;;;;;4.78;3.25;;;20.20;99.90;;;;;;5076749;28;20043;-66
2022/09/15 11:17:19;;;;;;;4.25;2.83;;;19.80;99.90;;;;;;5083526;28;20024;-67
2022/09/15 11:20:16;;;;;;;5.80;3.80;;;19.40;99.90;;;;;;5067270;28;20028;-67
2022/09/15 11:23:01;;;;;;;6.13;3.15;;;19.00;99.90;;;;;;5080657;28;20392;-66
2022/09/15 11:25:31;;;;;;;4.45;3.28;;;18.60;99.90;;;;;;5082324;28;20057;-67
2022/09/15 11:28:00;;;;;;;5.47;3.80;;;18.50;99.90;;;;;;5080235;28;20053;-68
2022/09/15 11:30:34;;;;;;;5.35;4.03;;;18.40;99.90;;;;;;5078107;28;20025;-66
2022/09/15 11:33:19;;;;;;;8.20;4.00;;;18.50;99.90;;;;;;5078464;28;20530;-66
2022/09/15 11:35:46;;;;;;;5.25;3.83;;;18.70;99.90;;;;;;5076189;28;20037;-67
2022/09/15 11:38:37;;;;;;;4.97;2.85;;;18.70;99.90;;;;;;5079752;28;20050;-67
2022/09/15 11:41:21;;;;;;;5.00;3.20;;;18.70;99.90;;;;;;5076773;28;20020;-66
2022/09/15 11:44:00;;;;;;;6.85;2.92;;;18.80;99.90;;;;;;5078246;28;20020;-67
2022/09/15 11:46:37;;;;;;;7.45;3.47;;;18.70;99.90;;;;;;5081530;28;20028;-66
2022/09/15 11:49:15;;;;;;;5.90;3.15;;;18.60;99.90;;;;;;5075539;28;20093;-66
2022/09/15 11:51:51;;;;;;;7.45;3.17;;;18.60;99.90;;;;;;5080642;28;20082;-66
2022/09/15 11:54:28;;;;;;;11.20;3.65;;;18.50;99.90;;;;;;5075773;28;20047;-66
2022/09/15 11:56:55;;;;;;;6.53;3.55;;;18.40;99.90;;;;;;5077969;28;20058;-66
2022/09/15 11:59:50;;;;;;;6.28;3.25;;;18.40;99.90;;;;;;5082275;28;20056;-66
2022/09/15 12:02:30;;;;;;;4.88;3.08;;;18.40;99.90;;;;;;5082424;28;20036;-66
2022/09/15 12:05:19;;;;;;;5.43;2.80;;;18.60;99.90;;;;;;5080065;28;20036;-67
2022/09/15 12:08:03;;;;;;;6.68;2.88;;;18.80;99.90;;;;;;5080883;28;20162;-66
2022/09/15 12:10:55;;;;;;;5.05;2.95;;;19.10;99.90;;;;;;5063061;28;20198;-66
2022/09/15 12:13:23;;;;;;;6.85;3.10;;;19.30;99.90;;;;;;5076765;28;20021;-66
2022/09/15 12:15:50;;;;;;;7.35;2.67;;;19.60;99.90;;;;;;5082361;28;20049;-66
2022/09/15 12:18:19;;;;;;;6.30;2.70;;;19.90;99.90;;;;;;5079742;28;20373;-67
2022/09/15 12:20:56;;;;;;;4.25;2.75;;;20.20;99.90;;;;;;5077631;28;20477;-66
2022/09/15 12:23:49;;;;;;;10.43;2.78;;;20.50;99.90;;;;;;5079124;28;20021;-67
2022/09/15 12:26:20;;;;;;;7.70;2.65;;;20.90;99.90;;;;;;5079849;28;20028;-66
2022/09/15 12:28:49;;;;;;;;;;;21.20;99.90;;;;;;5078771;28;20021;-66
2022/09/15 12:31:28;;;;;;;3.20;2.00;;;21.30;99.90;;;;;;5078734;28;20340;-66
2022/09/15 12:34:02;;;;;;;3.85;1.88;;;21.60;99.90;;;;;;5075708;28;20112;-66
2022/09/15 12:36:41;;;;;;;4.20;1.85;;;21.70;99.90;;;;;;5075926;28;20182;-65
2022/09/15 12:39:28;;;;;;;4.82;1.85;;;21.40;99.90;;;;;;5078901;28;20103;-66
2022/09/15 12:42:11;;;;;;;3.97;1.67;;;21.30;99.90;;;;;;5079033;28;20036;-66
2022/09/15 12:44:43;;;;;;;4.25;1.90;;;21.20;99.90;;;;;;5081719;28;20032;-67
2022/09/15 12:47:27;;;;;;;3.22;1.77;;;21.30;99.90;;;;;;5081866;28;20032;-66
2022/09/15 12:50:03;;;;;;;4.97;1.58;;;21.50;99.90;;;;;;5084901;28;20024;-66
2022/09/15 12:52:29;;;;;;;8.07;1.90;;;21.60;99.90;;;;;;5082085;28;20033;-67
2022/09/15 12:55:00;;;;;;;3.50;1.83;;;21.70;99.90;;;;;;5083415;28;20365;-67
2022/09/15 12:57:29;;;;;;;2.60;1.63;;;21.80;99.90;;;;;;5068277;28;20051;-66
2022/09/15 13:00:20;;;;;;;2.20;1.33;;;21.80;99.90;;;;;;5082645;28;20028;-67
2022/09/15 13:02:50;;;;;;;3.55;1.77;;;21.70;99.90;;;;;;5082801;28;20037;-66
2022/09/15 13:05:40;;;;;;;1.83;1.40;;;21.60;99.90;;;;;;5086192;28;20035;-67
2022/09/15 13:08:29;;;;;;;2.35;1.42;;;21.60;99.90;;;;;;5082645;28;20040;-67
2022/09/15 13:11:14;;;;;;;2.40;1.40;;;21.70;99.90;;;;;;5072204;28;20054;-66